createdAt,value
2023-11-10T00:01:42.200Z,98638.66
2023-11-10T00:04:09.040Z,98643.88
2023-11-10T00:06:36.399Z,98644.63
2023-11-10T00:09:06.585Z,98654.19
2023-11-10T00:11:33.249Z,98656.38
2023-11-10T00:14:11.009Z,98651.53
2023-11-10T00:16:45.085Z,98660.09
2023-11-10T00:19:20.106Z,98652.13
2023-11-10T00:21:50.907Z,98652.88
2023-11-10T00:24:18.090Z,98665.97
2023-11-10T00:26:51.355Z,98667.53
2023-11-10T00:29:18.153Z,98673.75
2023-11-10T00:31:46.600Z,98687.19
2023-11-10T00:34:23.331Z,98678.81
2023-11-10T00:36:50.069Z,98680.09
2023-11-10T00:39:18.484Z,98697.41
2023-11-10T00:41:54.096Z,98705.81
2023-11-10T00:44:20.911Z,98709.88
2023-11-10T00:46:47.531Z,98703.97
2023-11-10T00:49:22.613Z,98704.28
2023-11-10T00:51:49.589Z,98698.81
2023-11-10T00:54:19.670Z,98689.69
2023-11-10T00:56:56.483Z,98691.31
2023-11-10T00:59:39.309Z,98702.78
2023-11-10T01:02:06.005Z,98693.59
2023-11-10T01:04:36.021Z,98696.25
2023-11-10T01:07:13.207Z,98704.78
2023-11-10T01:09:40.021Z,98701.31
2023-11-10T01:12:07.745Z,98696.47
2023-11-10T01:15:00.038Z,98701.88
2023-11-10T01:17:27.000Z,98695.97
2023-11-10T01:19:54.052Z,98694.75
2023-11-10T01:22:20.709Z,98691.16
2023-11-10T01:24:47.371Z,98686.69
2023-11-10T01:27:56.128Z,98674.59
2023-11-10T01:30:28.188Z,98660.06
2023-11-10T01:33:13.425Z,98650.50
2023-11-10T01:35:41.052Z,98644.97
2023-11-10T01:38:08.500Z,98650.22
2023-11-10T01:40:42.715Z,98632.09
2023-11-10T01:43:11.510Z,98627.06
2023-11-10T01:45:38.575Z,98621.22
2023-11-10T01:48:12.459Z,98611.84
2023-11-10T01:50:40.249Z,98592.91
2023-11-10T01:53:09.751Z,98596.53
2023-11-10T01:55:42.084Z,98587.75
2023-11-10T01:58:10.051Z,98579.22
2023-11-10T02:00:38.458Z,98592.25
2023-11-10T02:05:58.406Z,98578.94
2023-11-10T02:08:25.248Z,98571.28
2023-11-10T02:10:51.949Z,98561.16
2023-11-10T02:13:28.774Z,98558.25
2023-11-10T02:15:55.522Z,98564.16
2023-11-10T02:18:22.281Z,98541.09
2023-11-10T02:20:48.991Z,98545.19
2023-11-10T02:23:16.458Z,98546.88
2023-11-10T02:25:51.673Z,98549.84
2023-11-10T02:28:18.973Z,98538.41
2023-11-10T02:30:45.706Z,98530.31
2023-11-10T02:33:21.711Z,98521.94
2023-11-10T02:35:48.383Z,98520.88
2023-11-10T02:38:15.332Z,98527.66
2023-11-10T02:40:49.760Z,98519.22
2023-11-10T02:43:34.598Z,98528.81
2023-11-10T02:46:02.367Z,98538.47
2023-11-10T02:48:29.778Z,98539.13
2023-11-10T02:50:56.822Z,98533.16
2023-11-10T02:53:23.446Z,98533.25
2023-11-10T02:55:50.634Z,98535.53
2023-11-10T02:58:17.467Z,98522.22
2023-11-10T03:00:44.689Z,98515.19
2023-11-10T03:03:12.725Z,98518.06
2023-11-10T03:05:40.507Z,98507.06
2023-11-10T03:08:10.440Z,98507.56
2023-11-10T03:10:37.176Z,98488.91
2023-11-10T03:13:04.579Z,98495.25
2023-11-10T03:15:31.385Z,98489.41
2023-11-10T03:17:58.215Z,98479.00
2023-11-10T03:20:27.948Z,98467.25
2023-11-10T03:22:55.438Z,98475.34
2023-11-10T03:25:25.186Z,98484.38
2023-11-10T03:27:55.345Z,98484.38
2023-11-10T03:30:24.693Z,98480.38
2023-11-10T03:32:55.491Z,98480.56
2023-11-10T03:35:28.373Z,98480.66
2023-11-10T03:37:55.274Z,98477.53
2023-11-10T03:40:26.359Z,98483.06
2023-11-10T03:43:18.278Z,98481.75
2023-11-10T03:45:45.118Z,98487.22
2023-11-10T03:48:11.842Z,98482.44
2023-11-10T03:50:38.555Z,98481.66
2023-11-10T03:53:05.236Z,98478.59
2023-11-10T03:55:33.100Z,98479.13
2023-11-10T03:58:03.991Z,98475.34
2023-11-10T04:00:41.756Z,98478.44
2023-11-10T04:03:13.017Z,98474.91
2023-11-10T04:05:40.333Z,98470.63
2023-11-10T04:08:07.057Z,98470.41
2023-11-10T04:10:40.046Z,98464.66
2023-11-10T04:13:06.851Z,98466.34
2023-11-10T04:15:33.655Z,98466.38
2023-11-10T04:18:03.741Z,98460.28
2023-11-10T04:20:36.875Z,98457.75
2023-11-10T04:23:03.577Z,98454.81
2023-11-10T04:25:31.790Z,98456.56
2023-11-10T04:28:08.345Z,98457.59
2023-11-10T04:30:35.039Z,98449.97
2023-11-10T04:33:02.183Z,98452.59
2023-11-10T04:35:37.833Z,98453.47
2023-11-10T04:38:05.246Z,98448.00
2023-11-10T04:40:31.995Z,98444.78
2023-11-10T04:42:58.702Z,98453.44
2023-11-10T04:45:40.125Z,98460.75
2023-11-10T04:48:06.986Z,98460.97
2023-11-10T04:50:42.298Z,98452.13
2023-11-10T04:53:09.256Z,98458.34
2023-11-10T04:55:35.935Z,98461.34
2023-11-10T04:58:11.829Z,98453.47
2023-11-10T05:00:38.529Z,98467.63
2023-11-10T05:03:07.388Z,98460.41
2023-11-10T05:05:40.607Z,98465.44
2023-11-10T05:08:07.419Z,98454.22
2023-11-10T05:10:34.137Z,98455.25
2023-11-10T05:13:00.805Z,98462.34
2023-11-10T05:15:28.566Z,98468.91
2023-11-10T05:18:02.235Z,98453.53
2023-11-10T05:20:32.974Z,98461.50
2023-11-10T05:31:23.960Z,98456.03
2023-11-10T05:33:52.733Z,98459.53
2023-11-10T05:36:26.929Z,98450.66
2023-11-10T05:40:00.707Z,98450.00
2023-11-10T05:45:45.569Z,98448.75
2023-11-10T05:48:18.943Z,98452.09
2023-11-10T05:51:30.953Z,98447.66
2023-11-10T05:54:56.783Z,98455.94
2023-11-10T05:57:24.037Z,98450.63
2023-11-10T06:08:36.348Z,98451.50
2023-11-10T06:11:26.389Z,98447.56
2023-11-10T06:14:22.558Z,98454.34
2023-11-10T06:17:09.130Z,98452.97
2023-11-10T06:19:54.317Z,98448.63
2023-11-10T06:22:23.746Z,98457.78
2023-11-10T06:25:25.165Z,98458.16
2023-11-10T06:27:58.365Z,98468.88
2023-11-10T06:30:29.900Z,98458.09
2023-11-10T06:33:59.497Z,98458.00
2023-11-10T06:36:51.942Z,98461.31
2023-11-10T06:39:43.866Z,98456.06
2023-11-10T06:42:18.055Z,98453.41
2023-11-10T06:45:56.923Z,98458.13
2023-11-10T06:48:30.951Z,98462.66
2023-11-10T07:02:35.575Z,98460.44
2023-11-10T07:06:42.449Z,98456.59
2023-11-10T07:10:02.142Z,98454.53
2023-11-10T07:13:28.997Z,98458.22
2023-11-10T07:16:21.205Z,98467.16
2023-11-10T07:18:55.895Z,98456.91
2023-11-10T07:25:44.821Z,98461.47
2023-11-10T07:28:14.765Z,98462.41
2023-11-10T07:30:41.584Z,98470.25
2023-11-10T07:36:28.732Z,98468.50
2023-11-10T07:39:02.746Z,98474.41
2023-11-10T07:41:37.824Z,98477.22
2023-11-10T07:44:56.235Z,98482.38
2023-11-10T07:47:22.877Z,98474.03
2023-11-10T07:49:49.620Z,98480.44
2023-11-10T07:52:16.397Z,98479.63
2023-11-10T07:54:57.925Z,98487.47
2023-11-10T07:57:28.851Z,98477.75
2023-11-10T07:59:55.651Z,98486.44
2023-11-10T08:02:22.374Z,98476.09
2023-11-10T08:04:49.224Z,98477.81
2023-11-10T08:07:15.959Z,98483.28
2023-11-10T08:09:42.691Z,98485.34
2023-11-10T08:12:15.415Z,98483.78
2023-11-10T08:14:42.100Z,98487.50
2023-11-10T08:17:08.769Z,98474.53
2023-11-10T08:19:43.626Z,98480.25
2023-11-10T08:22:35.811Z,98481.84
2023-11-10T08:28:10.101Z,98486.91
2023-11-10T08:30:42.690Z,98491.88
2023-11-10T08:33:10.282Z,98489.28
2023-11-10T08:35:40.313Z,98492.72
2023-11-10T08:38:13.921Z,98487.03
2023-11-10T08:40:40.905Z,98493.22
2023-11-10T08:43:07.550Z,98496.72
2023-11-10T08:45:41.846Z,98512.84
2023-11-10T08:48:08.696Z,98503.03
2023-11-10T08:50:40.270Z,98504.28
2023-11-10T08:54:16.163Z,98490.47
2023-11-10T08:56:42.906Z,98492.34
2023-11-10T08:59:10.621Z,98487.22
2023-11-10T09:01:39.066Z,98493.59
2023-11-10T09:04:37.457Z,98490.00
2023-11-10T09:07:08.167Z,98488.63
2023-11-10T09:09:40.737Z,98483.78
2023-11-10T09:12:07.617Z,98487.84
2023-11-10T09:15:28.535Z,98489.22
2023-11-10T09:17:55.636Z,98489.34
2023-11-10T09:20:40.556Z,98484.56
2023-11-10T09:23:31.629Z,98486.75
2023-11-10T09:26:02.339Z,98490.84
2023-11-10T09:28:32.261Z,98490.06
2023-11-10T09:31:00.210Z,98487.50
2023-11-10T09:36:19.358Z,98481.03
2023-11-10T09:38:50.718Z,98488.09
2023-11-10T09:41:18.910Z,98480.34
2023-11-10T09:43:49.583Z,98471.41
2023-11-10T09:46:20.274Z,98475.72
2023-11-10T09:48:52.653Z,98464.09
2023-11-10T09:51:21.232Z,98444.16
2023-11-10T09:53:51.342Z,98433.84
2023-11-10T09:56:18.585Z,98430.56
2023-11-10T09:59:10.007Z,98425.50
2023-11-10T10:01:37.311Z,98416.75
2023-11-10T10:04:05.102Z,98401.53
2023-11-10T10:06:35.692Z,98404.22
2023-11-10T10:09:10.742Z,98398.38
2023-11-10T10:11:37.485Z,98396.94
2023-11-10T10:14:09.450Z,98376.41
2023-11-10T10:16:36.172Z,98373.13
2023-11-10T10:19:06.322Z,98371.28
2023-11-10T10:21:42.773Z,98351.88
2023-11-10T10:24:09.457Z,98340.22
2023-11-10T10:26:36.122Z,98328.97
2023-11-10T10:29:03.742Z,98314.19
2023-11-10T10:31:38.387Z,98291.91
2023-11-10T10:34:07.205Z,98256.72
2023-11-10T10:36:39.218Z,98238.09
2023-11-10T10:39:13.092Z,98207.25
2023-11-10T10:42:08.057Z,98200.06
2023-11-10T10:44:43.627Z,98205.34
2023-11-10T10:47:10.709Z,98193.53
2023-11-10T10:50:03.670Z,98173.22
2023-11-10T10:52:31.014Z,98160.16
2023-11-10T10:54:58.254Z,98158.72
2023-11-10T10:57:29.019Z,98137.94
2023-11-10T10:59:58.328Z,98120.50
2023-11-10T11:02:26.404Z,98103.50
2023-11-10T11:04:54.884Z,98099.28
2023-11-10T11:07:59.091Z,98077.97
2023-11-10T11:10:54.306Z,98062.16
2023-11-10T11:13:32.685Z,98043.53
2023-11-10T11:16:27.806Z,98031.28
2023-11-10T11:18:57.247Z,98005.75
2023-11-10T11:21:32.370Z,98000.78
2023-11-10T11:24:14.988Z,97997.75
2023-11-10T11:26:42.752Z,97984.66
2023-11-10T11:29:10.772Z,97969.31
2023-11-10T11:31:50.229Z,97957.22
2023-11-10T11:34:20.572Z,97964.69
2023-11-10T11:36:57.659Z,97950.97
2023-11-10T11:39:24.366Z,97973.13
2023-11-10T11:41:51.979Z,97973.16
2023-11-10T11:44:44.744Z,97969.38
2023-11-10T11:47:12.830Z,97967.81
2023-11-10T11:49:43.113Z,97981.28
2023-11-10T11:52:17.131Z,97997.63
2023-11-10T11:54:43.958Z,97997.72
2023-11-10T11:57:11.425Z,98001.50
2023-11-10T11:59:45.056Z,98025.13
2023-11-10T12:02:12.277Z,98010.09
2023-11-10T12:04:39.135Z,98012.81
2023-11-10T12:07:16.147Z,98017.38
2023-11-10T12:09:42.928Z,98028.38
2023-11-10T12:12:15.203Z,98032.16
2023-11-10T12:15:09.261Z,98042.59
2023-11-10T12:17:36.571Z,98044.47
2023-11-10T12:20:03.481Z,98058.56
2023-11-10T12:22:30.461Z,98086.63
2023-11-10T12:25:04.291Z,98087.81
2023-11-10T12:27:34.709Z,98089.59
2023-11-10T12:30:01.458Z,98088.25
2023-11-10T12:32:35.395Z,98099.19
2023-11-10T12:35:04.889Z,98098.28
2023-11-10T12:37:33.513Z,98113.75
2023-11-10T12:40:28.721Z,98122.06
2023-11-10T12:42:59.840Z,98126.63
2023-11-10T12:45:52.261Z,98121.50
2023-11-10T12:48:19.084Z,98124.25
2023-11-10T12:50:48.459Z,98136.66
2023-11-10T12:53:19.217Z,98146.13
2023-11-10T12:55:48.786Z,98139.38
2023-11-10T12:58:16.176Z,98139.81
2023-11-10T13:00:43.571Z,98140.00
2023-11-10T13:03:15.382Z,98150.84
2023-11-10T13:05:42.412Z,98139.03
2023-11-10T13:08:09.160Z,98150.50
2023-11-10T13:10:35.953Z,98156.75
2023-11-10T13:13:03.060Z,98172.97
2023-11-10T13:18:23.809Z,98185.03
2023-11-10T13:24:03.732Z,98191.56
2023-11-10T13:26:34.076Z,98200.06
2023-11-10T13:29:06.273Z,98207.22
2023-11-10T13:31:33.154Z,98219.38
2023-11-10T13:34:27.941Z,98222.88
2023-11-10T13:36:54.858Z,98226.59
2023-11-10T13:39:24.071Z,98237.03
2023-11-10T13:41:52.202Z,98229.19
2023-11-10T13:44:19.291Z,98240.88
2023-11-10T13:46:46.111Z,98249.59
2023-11-10T13:49:13.440Z,98250.72
2023-11-10T13:51:40.656Z,98256.56
2023-11-10T13:54:16.523Z,98256.81
2023-11-10T13:56:43.329Z,98258.53
2023-11-10T13:59:10.762Z,98271.38
2023-11-10T14:01:37.844Z,98278.31
2023-11-10T14:04:08.037Z,98263.53
2023-11-10T14:06:36.115Z,98269.03
2023-11-10T14:09:04.188Z,98275.91
2023-11-10T14:11:36.990Z,98280.50
2023-11-10T14:14:03.683Z,98285.47
2023-11-10T14:16:30.998Z,98290.06
2023-11-10T14:18:58.038Z,98285.84
2023-11-10T14:21:25.485Z,98292.06
2023-11-10T14:23:55.275Z,98287.38
2023-11-10T14:26:25.517Z,98287.84
2023-11-10T14:28:56.325Z,98289.06
2023-11-10T14:31:26.900Z,98297.41
2023-11-10T14:33:56.388Z,98294.09
2023-11-10T14:36:24.207Z,98298.47
2023-11-10T14:38:57.005Z,98303.94
2023-11-10T14:41:25.698Z,98307.09
2023-11-10T14:43:53.045Z,98316.25
2023-11-10T14:46:21.437Z,98304.75
2023-11-10T14:48:51.316Z,98317.63
2023-11-10T14:51:26.801Z,98322.88
2023-11-10T14:53:59.017Z,98318.88
2023-11-10T14:56:25.755Z,98330.56
2023-11-10T14:58:52.475Z,98335.34
2023-11-10T15:01:21.095Z,98328.38
2023-11-10T15:03:49.654Z,98339.47
2023-11-10T15:06:18.368Z,98341.34
2023-11-10T15:08:47.830Z,98350.59
2023-11-10T15:11:17.809Z,98364.50
2023-11-10T15:13:47.272Z,98359.19
2023-11-10T15:16:19.243Z,98367.50
2023-11-10T15:18:49.608Z,98374.00
2023-11-10T15:21:16.452Z,98363.50
2023-11-10T15:23:50.577Z,98364.56
2023-11-10T15:26:17.449Z,98373.88
2023-11-10T15:29:11.198Z,98377.84
2023-11-10T15:31:43.286Z,98388.19
2023-11-10T15:34:19.759Z,98379.38
2023-11-10T15:37:00.357Z,98363.81
2023-11-10T15:39:29.144Z,98355.00
2023-11-10T15:41:56.540Z,98345.41
2023-11-10T15:44:23.265Z,98334.28
2023-11-10T15:46:51.273Z,98326.38
2023-11-10T15:49:20.448Z,98310.66
2023-11-10T15:51:56.261Z,98299.53
2023-11-10T15:54:37.038Z,98288.06
2023-11-10T15:57:06.327Z,98281.22
2023-11-10T15:59:36.089Z,98273.56
2023-11-10T16:02:06.560Z,98269.31
2023-11-10T16:04:36.140Z,98263.63
2023-11-10T16:07:14.007Z,98267.00
2023-11-10T16:09:47.089Z,98265.13
2023-11-10T16:12:14.096Z,98260.25
2023-11-10T16:14:41.027Z,98253.31
2023-11-10T16:17:07.945Z,98245.56
2023-11-10T16:19:35.208Z,98244.28
2023-11-10T16:22:05.832Z,98238.38
2023-11-10T16:24:34.367Z,98239.19
2023-11-10T16:27:01.017Z,98233.19
2023-11-10T16:29:27.720Z,98224.72
2023-11-10T16:31:56.731Z,98221.50
2023-11-10T16:34:26.767Z,98219.66
2023-11-10T16:36:55.435Z,98219.88
2023-11-10T16:39:22.423Z,98211.41
2023-11-10T16:41:57.947Z,98205.97
2023-11-10T16:44:25.625Z,98197.63
2023-11-10T16:46:54.037Z,98193.34
2023-11-10T16:49:26.902Z,98180.84
2023-11-10T16:51:54.446Z,98173.81
2023-11-10T16:54:21.367Z,98161.53
2023-11-10T16:56:49.043Z,98152.41
2023-11-10T16:59:15.984Z,98142.06
2023-11-10T17:01:48.067Z,98131.31
2023-11-10T17:04:15.131Z,98127.16
2023-11-10T17:06:41.881Z,98123.13
2023-11-10T17:09:08.585Z,98113.03
2023-11-10T17:11:35.249Z,98102.72
2023-11-10T17:14:04.621Z,98092.06
2023-11-10T17:16:32.674Z,98089.13
2023-11-10T17:18:59.468Z,98083.59
2023-11-10T17:21:26.199Z,98073.31
2023-11-10T17:23:52.915Z,98065.63
2023-11-10T17:26:25.571Z,98046.25
2023-11-10T17:28:53.051Z,98041.88
2023-11-10T17:31:20.196Z,98031.66
2023-11-10T17:33:52.640Z,98023.47
2023-11-10T17:36:21.268Z,98008.88
2023-11-10T17:38:48.043Z,98009.88
2023-11-10T17:41:21.309Z,97991.44
2023-11-10T17:43:50.400Z,97989.00
2023-11-10T17:46:18.118Z,97988.22
2023-11-10T17:48:53.482Z,97978.28
2023-11-10T17:51:22.649Z,97980.72
2023-11-10T17:53:49.356Z,97967.41
2023-11-10T17:56:16.224Z,97972.59
2023-11-10T17:58:50.192Z,97966.00
2023-11-10T18:01:16.947Z,97959.91
2023-11-10T18:03:46.529Z,97963.63
2023-11-10T18:06:15.517Z,97959.47
2023-11-10T18:08:45.228Z,97949.72
2023-11-10T18:11:12.518Z,97950.19
2023-11-10T18:13:42.197Z,97950.91
2023-11-10T18:16:16.289Z,97942.31
2023-11-10T18:18:46.918Z,97991.59
2023-11-10T18:21:22.265Z,98019.16
2023-11-10T18:23:52.280Z,98052.72
2023-11-10T18:26:21.319Z,98082.81
2023-11-10T18:28:48.349Z,98162.00
2023-11-10T18:31:16.201Z,98280.38
2023-11-10T18:33:46.113Z,98304.00
2023-11-10T18:36:17.263Z,98338.72
2023-11-10T18:38:47.012Z,98368.81
2023-11-10T18:41:17.823Z,98425.75
2023-11-10T18:43:47.088Z,98451.13
2023-11-10T18:46:19.039Z,98467.66
2023-11-10T18:48:49.123Z,98482.81
2023-11-10T18:51:18.558Z,98486.97
2023-11-10T18:53:48.245Z,98501.09
2023-11-10T18:56:20.362Z,98733.66
2023-11-10T18:58:47.139Z,98736.03
2023-11-10T19:01:21.189Z,98739.81
2023-11-10T19:03:48.025Z,98747.28
2023-11-10T19:06:18.915Z,98763.09
2023-11-10T19:08:53.740Z,98758.66
2023-11-10T19:11:20.837Z,98766.66
2023-11-10T19:13:50.846Z,98779.16
2023-11-10T19:16:25.843Z,98779.59
2023-11-10T19:18:52.668Z,98792.06
2023-11-10T19:21:19.361Z,98796.53
2023-11-10T19:23:46.201Z,98799.31
2023-11-10T19:26:15.773Z,98807.75
2023-11-10T19:28:48.550Z,98799.16
2023-11-10T19:31:24.995Z,98797.94
2023-11-10T19:33:51.766Z,98793.34
2023-11-10T19:36:20.783Z,98801.09
2023-11-10T19:38:47.536Z,98806.56
2023-11-10T19:41:21.569Z,98810.88
2023-11-10T19:43:49.841Z,98825.44
2023-11-10T19:46:16.864Z,98828.03
2023-11-10T19:48:50.761Z,98840.31
2023-11-10T19:56:25.266Z,98850.19
2023-11-10T20:01:21.794Z,98872.66
2023-11-10T20:03:48.461Z,98878.78
2023-11-10T20:06:17.879Z,98885.56
2023-11-10T20:08:47.054Z,98893.13
2023-11-10T20:11:22.876Z,98888.84
2023-11-10T20:13:51.327Z,98892.34
2023-11-10T20:16:18.982Z,98900.34
2023-11-10T20:18:49.811Z,98902.81
2023-11-10T20:21:21.653Z,98908.53
2023-11-10T20:23:49.173Z,98922.25
2023-11-10T20:26:18.347Z,98936.78
2023-11-10T20:28:47.953Z,98939.69
2023-11-10T20:31:17.291Z,98950.09
2023-11-10T20:33:46.824Z,98961.19
2023-11-10T20:36:18.200Z,98971.66
2023-11-10T20:38:47.333Z,98970.84
2023-11-10T20:41:16.229Z,98982.53
2023-11-10T20:43:42.906Z,98973.94
2023-11-10T20:46:20.546Z,98989.06
2023-11-10T20:48:50.609Z,98998.06
2023-11-10T20:51:23.973Z,99010.78
2023-11-10T20:53:51.064Z,99018.53
2023-11-10T20:56:18.531Z,99025.72
2023-11-10T20:58:54.124Z,99040.44
2023-11-10T21:01:23.692Z,99040.63
2023-11-10T21:04:01.772Z,99043.31
2023-11-10T21:06:28.710Z,99067.88
2023-11-10T21:08:56.048Z,99073.66
2023-11-10T21:11:22.795Z,99071.00
2023-11-10T21:13:57.437Z,99073.06
2023-11-10T21:16:24.291Z,99095.38
2023-11-10T21:18:51.123Z,99104.41
2023-11-10T21:21:28.624Z,99114.44
2023-11-10T21:23:55.876Z,99115.88
2023-11-10T21:26:23.884Z,99131.63
2023-11-10T21:28:58.894Z,99125.88
2023-11-10T21:31:28.257Z,99114.44
2023-11-10T21:33:55.532Z,99126.09
2023-11-10T21:36:30.058Z,99124.84
2023-11-10T21:38:57.089Z,99142.88
2023-11-10T21:41:27.992Z,99140.88
2023-11-10T21:43:59.046Z,99134.94
2023-11-10T21:46:25.880Z,99131.66
2023-11-10T21:48:52.722Z,99132.88
2023-11-10T21:51:19.589Z,99139.03
2023-11-10T21:53:48.831Z,99144.97
2023-11-10T21:56:19.235Z,99159.91
2023-11-10T21:58:49.617Z,99148.03
2023-11-10T22:01:17.609Z,99150.28
2023-11-10T22:03:47.112Z,99142.31
2023-11-10T22:06:19.624Z,99148.25
2023-11-10T22:08:49.136Z,99151.50
2023-11-10T22:11:19.094Z,99140.03
2023-11-10T22:13:48.377Z,99146.78
2023-11-10T22:16:17.445Z,99139.84
2023-11-10T22:18:53.249Z,99129.19
2023-11-10T22:21:20.121Z,99133.50
2023-11-10T22:23:46.850Z,99139.22
2023-11-10T22:26:23.638Z,99140.88
2023-11-10T22:28:50.499Z,99139.63
2023-11-10T22:31:17.199Z,99129.00
2023-11-10T22:33:51.065Z,99139.22
2023-11-10T22:36:18.491Z,99128.16
2023-11-10T22:38:47.566Z,99127.94
2023-11-10T22:41:26.927Z,99140.66
2023-11-10T22:43:53.774Z,99134.91
2023-11-10T22:46:20.575Z,99148.22
2023-11-10T22:48:49.509Z,99140.66
2023-11-10T22:51:18.212Z,99149.66
2023-11-10T22:53:47.561Z,99146.16
2023-11-10T22:56:16.521Z,99153.53
2023-11-10T22:58:50.622Z,99138.00
2023-11-10T23:01:17.297Z,99136.13
2023-11-10T23:03:46.737Z,99131.44
2023-11-10T23:06:15.550Z,99131.63
2023-11-10T23:08:47.725Z,99131.44
2023-11-10T23:11:17.674Z,99119.16
2023-11-10T23:13:50.334Z,99110.34
2023-11-10T23:16:17.204Z,99106.69
2023-11-10T23:18:45.522Z,99104.22
2023-11-10T23:21:17.433Z,99106.69
2023-11-10T23:23:45.392Z,99102.78
2023-11-10T23:26:12.926Z,99106.88
2023-11-10T23:28:39.926Z,99098.06
2023-11-10T23:31:06.871Z,99117.72
2023-11-10T23:33:33.773Z,99108.72
2023-11-10T23:36:02.933Z,99104.22
2023-11-10T23:38:29.812Z,99104.84
2023-11-10T23:40:57.878Z,99131.84
2023-11-10T23:43:24.891Z,99105.84
2023-11-10T23:45:51.684Z,99105.84
2023-11-10T23:48:21.908Z,99101.75
2023-11-10T23:50:48.788Z,99096.44
2023-11-10T23:53:16.733Z,99104.84
2023-11-10T23:55:49.992Z,99107.91
2023-11-10T23:58:16.866Z,99104.00
